Time;durP1;ratioP1;P1;durP2;ratioP2;P2;SDS_P1;SDS_P2;PMS_P1;PMS_P2;Temp;Humidity;BMP_temperature;BMP_pressure;BME280_temperature;BME280_humidity;BME280_pressure;Samples;Min_cycle;Max_cycle;Signal;HPM_P1;HPM_P2
2023/03/13 00:01:31;;;;;;;1.73;1.10;;;;;;;;;;5070090;28;19990;-78
2023/03/13 00:03:56;;;;;;;1.98;1.10;;;;;;;;;;5051200;28;20039;-79
2023/03/13 00:06:22;;;;;;;2.53;1.10;;;;;;;;;;5070643;28;20024;-79
2023/03/13 00:08:48;;;;;;;2.13;1.23;;;;;;;;;;5051548;28;20101;-79
2023/03/13 00:11:14;;;;;;;2.15;1.08;;;;;;;;;;5052508;28;20020;-79
2023/03/13 00:13:39;;;;;;;1.98;1.08;;;;;;;;;;5051822;28;20051;-81
2023/03/13 00:16:06;;;;;;;1.83;1.10;;;;;;;;;;5070850;28;20021;-81
2023/03/13 00:18:31;;;;;;;2.30;1.10;;;;;;;;;;5052004;28;20043;-80
2023/03/13 00:21:00;;;;;;;1.48;1.02;;;;;;;;;;5071091;28;20107;-80
2023/03/13 00:23:25;;;;;;;1.92;0.90;;;;;;;;;;5070623;28;20029;-79
2023/03/13 00:25:57;;;;;;;2.00;1.02;;;;;;;;;;5052532;28;20050;-80
2023/03/13 00:28:23;;;;;;;1.88;1.00;;;;;;;;;;5057812;28;20139;-79
2023/03/13 00:30:48;;;;;;;1.65;1.20;;;;;;;;;;5070740;28;20519;-79
2023/03/13 00:33:13;;;;;;;3.67;1.20;;;;;;;;;;5039396;28;20096;-79
2023/03/13 00:35:39;;;;;;;2.42;1.50;;;;;;;;;;5070815;28;20024;-79
2023/03/13 00:38:05;;;;;;;2.95;1.20;;;;;;;;;;5070087;28;20052;-79
2023/03/13 00:40:30;;;;;;;3.35;1.10;;;;;;;;;;5062314;28;20036;-80
2023/03/13 00:42:56;;;;;;;4.03;1.70;;;;;;;;;;5053477;28;20120;-80
2023/03/13 00:45:21;;;;;;;2.38;1.30;;;;;;;;;;5051999;28;20107;-80
2023/03/13 00:47:48;;;;;;;2.33;1.30;;;;;;;;;;5060497;28;20033;-80
2023/03/13 00:50:14;;;;;;;2.95;1.35;;;;;;;;;;5063116;28;20033;-80
2023/03/13 00:52:39;;;;;;;2.40;1.23;;;;;;;;;;5046291;28;20047;-80
2023/03/13 00:55:07;;;;;;;2.53;1.88;;;;;;;;;;5050532;28;20128;-80
2023/03/13 00:57:36;;;;;;;1.45;1.10;;;;;;;;;;5032276;28;20103;-79
2023/03/13 01:00:04;;;;;;;2.65;1.10;;;;;;;;;;5049956;28;20083;-80
2023/03/13 01:02:30;;;;;;;2.38;1.10;;;;;;;;;;5051503;28;20033;-79
2023/03/13 01:04:55;;;;;;;2.35;1.27;;;;;;;;;;5033010;28;20063;-79
2023/03/13 01:07:22;;;;;;;2.55;1.35;;;;;;;;;;5043357;28;20480;-80
2023/03/13 01:09:48;;;;;;;2.10;1.13;;;;;;;;;;5050667;28;20031;-80
2023/03/13 01:12:13;;;;;;;3.63;1.40;;;;;;;;;;5033447;28;20041;-80
2023/03/13 01:14:39;;;;;;;4.90;1.42;;;;;;;;;;5051786;28;20033;-80
2023/03/13 01:17:04;;;;;;;1.73;1.10;;;;;;;;;;5036354;28;20028;-80
2023/03/13 01:19:30;;;;;;;2.97;1.50;;;;;;;;;;5036377;28;20526;-80
2023/03/13 01:21:55;;;;;;;2.10;1.40;;;;;;;;;;5036051;28;20029;-80
2023/03/13 01:24:23;;;;;;;2.28;1.25;;;;;;;;;;5054653;28;20064;-80
2023/03/13 01:26:49;;;;;;;2.42;1.30;;;;;;;;;;5036232;28;20052;-80
2023/03/13 01:29:14;;;;;;;2.10;1.30;;;;;;;;;;5036276;28;20071;-79
2023/03/13 01:31:40;;;;;;;2.30;1.20;;;;;;;;;;5036113;28;20047;-79
2023/03/13 01:34:06;;;;;;;3.88;1.30;;;;;;;;;;5015381;28;20499;-80
2023/03/13 01:36:31;;;;;;;2.10;1.30;;;;;;;;;;5053050;28;20124;-79
2023/03/13 01:38:58;;;;;;;2.40;1.10;;;;;;;;;;5035662;28;20090;-80
2023/03/13 01:41:24;;;;;;;3.75;1.20;;;;;;;;;;5019129;28;20028;-79
2023/03/13 01:43:49;;;;;;;3.03;1.30;;;;;;;;;;5016503;28;20128;-79
2023/03/13 01:46:17;;;;;;;;;;;;;;;;;;5019281;28;20029;-79
2023/03/13 01:48:56;;;;;;;1.38;1.00;;;;;;;;;;5036091;28;19909;-79
2023/03/13 01:51:23;;;;;;;2.38;1.20;;;;;;;;;;5035569;28;20428;-80
2023/03/13 01:53:51;;;;;;;2.05;1.20;;;;;;;;;;5003058;28;20074;-79
2023/03/13 01:56:18;;;;;;;2.50;1.30;;;;;;;;;;5023279;28;20490;-79
2023/03/13 01:58:43;;;;;;;1.88;1.20;;;;;;;;;;5019107;28;20037;-78
2023/03/13 02:01:10;;;;;;;1.63;1.05;;;;;;;;;;5007204;28;20058;-79
2023/03/13 02:03:36;;;;;;;2.85;1.30;;;;;;;;;;5035709;28;20107;-79
2023/03/13 02:06:01;;;;;;;2.10;1.30;;;;;;;;;;5052112;28;20029;-79
2023/03/13 02:08:27;;;;;;;;;;;;;;;;;;5036229;28;20468;-79
2023/03/13 02:10:55;;;;;;;2.17;1.33;;;;;;;;;;5035333;28;19912;-79
2023/03/13 02:13:20;;;;;;;2.10;1.30;;;;;;;;;;5018907;28;20040;-79
2023/03/13 02:15:46;;;;;;;3.55;1.45;;;;;;;;;;5035529;28;20045;-80
2023/03/13 02:18:12;;;;;;;;;;;;;;;;;;5003096;28;20032;-79
2023/03/13 02:20:38;;;;;;;2.20;1.48;;;;;;;;;;5053549;28;19922;-79
2023/03/13 02:23:11;;;;;;;3.47;1.48;;;;;;;;;;5002641;28;20395;-79
2023/03/13 02:25:44;;;;;;;2.47;1.50;;;;;;;;;;5040767;28;20566;-79
2023/03/13 02:28:14;;;;;;;3.45;1.58;;;;;;;;;;5018697;28;20028;-79
2023/03/13 02:30:41;;;;;;;4.95;1.67;;;;;;;;;;5035376;28;20039;-79
2023/03/13 02:33:07;;;;;;;3.40;1.40;;;;;;;;;;5018689;28;20530;-79
2023/03/13 02:35:33;;;;;;;4.45;1.75;;;;;;;;;;5035184;28;20052;-79
2023/03/13 02:38:02;;;;;;;5.03;1.88;;;;;;;;;;5020019;28;20033;-79
2023/03/13 02:40:28;;;;;;;2.92;1.50;;;;;;;;;;5018747;28;20103;-79
2023/03/13 02:42:54;;;;;;;4.85;1.92;;;;;;;;;;5018380;28;20029;-79
2023/03/13 02:45:20;;;;;;;3.30;1.60;;;;;;;;;;5018537;28;20510;-79
2023/03/13 02:47:46;;;;;;;2.92;1.50;;;;;;;;;;5034678;28;20029;-79
2023/03/13 02:50:12;;;;;;;3.78;1.80;;;;;;;;;;5052921;28;20025;-79
2023/03/13 02:52:58;;;;;;;3.58;1.60;;;;;;;;;;5018264;28;20036;-79
2023/03/13 02:55:29;;;;;;;4.72;1.80;;;;;;;;;;5028971;28;20424;-79
2023/03/13 02:57:54;;;;;;;3.25;1.70;;;;;;;;;;5034483;28;20047;-79
2023/03/13 03:00:25;;;;;;;3.80;1.80;;;;;;;;;;5028340;28;20430;-80
2023/03/13 03:02:50;;;;;;;3.25;1.42;;;;;;;;;;5040859;28;20039;-80
2023/03/13 03:05:16;;;;;;;3.50;1.63;;;;;;;;;;5051125;28;20021;-79
2023/03/13 03:07:41;;;;;;;2.72;1.38;;;;;;;;;;5050732;28;20064;-80
2023/03/13 03:10:07;;;;;;;3.53;1.50;;;;;;;;;;5052563;28;20029;-79
2023/03/13 03:12:33;;;;;;;3.08;1.50;;;;;;;;;;5051163;28;20082;-80
2023/03/13 03:14:59;;;;;;;;;;;;;;;;;;5050517;28;20111;-79
2023/03/13 03:17:25;;;;;;;2.28;1.40;;;;;;;;;;5050754;28;20342;-79
2023/03/13 03:19:52;;;;;;;2.92;1.40;;;;;;;;;;5033675;28;20057;-80
2023/03/13 03:22:18;;;;;;;2.55;1.52;;;;;;;;;;5034030;28;20033;-79
2023/03/13 03:24:44;;;;;;;2.55;1.50;;;;;;;;;;5050334;28;20020;-79
2023/03/13 03:27:09;;;;;;;10.70;1.80;;;;;;;;;;5049935;28;20086;-79
2023/03/13 03:29:41;;;;;;;2.60;1.70;;;;;;;;;;5050108;28;20483;-79
2023/03/13 03:32:07;;;;;;;3.08;1.52;;;;;;;;;;5034116;28;20033;-79
2023/03/13 03:34:32;;;;;;;3.08;1.63;;;;;;;;;;5033157;28;20498;-79
2023/03/13 03:36:58;;;;;;;4.47;1.63;;;;;;;;;;5050177;28;20130;-81
2023/03/13 03:39:26;;;;;;;2.67;1.50;;;;;;;;;;5050428;28;20025;-80
2023/03/13 03:41:52;;;;;;;3.97;1.65;;;;;;;;;;5033571;28;20044;-80
2023/03/13 03:44:17;;;;;;;2.53;1.60;;;;;;;;;;5033224;28;20029;-80
2023/03/13 03:46:51;;;;;;;3.58;1.77;;;;;;;;;;5034129;28;20029;-80
2023/03/13 03:49:17;;;;;;;3.03;1.75;;;;;;;;;;5049886;28;20055;-80
2023/03/13 03:51:42;;;;;;;6.57;1.77;;;;;;;;;;5040105;28;20032;-81
2023/03/13 03:54:08;;;;;;;;;;;;;;;;;;5051000;28;20044;-80
2023/03/13 03:56:33;;;;;;;4.60;1.95;;;;;;;;;;5050475;28;19913;-80
2023/03/13 03:59:00;;;;;;;4.18;1.58;;;;;;;;;;5050012;28;20039;-81
2023/03/13 04:01:43;;;;;;;2.72;1.40;;;;;;;;;;5050140;28;20553;-81
2023/03/13 04:04:10;;;;;;;2.60;1.60;;;;;;;;;;5036083;28;20758;-80
2023/03/13 04:06:38;;;;;;;4.68;2.15;;;;;;;;;;5041465;28;20044;-80
2023/03/13 04:09:06;;;;;;;3.67;2.10;;;;;;;;;;5033717;28;20071;-80
2023/03/13 04:11:34;;;;;;;2.88;1.90;;;;;;;;;;5042906;28;20025;-80
2023/03/13 04:13:59;;;;;;;3.55;2.08;;;;;;;;;;5033684;28;20037;-80
2023/03/13 04:16:25;;;;;;;3.03;1.80;;;;;;;;;;5030304;28;20576;-80
2023/03/13 04:18:52;;;;;;;4.07;1.73;;;;;;;;;;5048341;28;20028;-81
2023/03/13 04:21:18;;;;;;;4.15;1.80;;;;;;;;;;5050457;28;20033;-81
2023/03/13 04:23:51;;;;;;;4.68;2.00;;;;;;;;;;5027624;28;20044;-80
2023/03/13 04:26:17;;;;;;;3.10;1.80;;;;;;;;;;5003175;28;20033;-79
2023/03/13 04:28:43;;;;;;;3.30;1.88;;;;;;;;;;5016618;28;20029;-79
2023/03/13 04:31:13;;;;;;;3.85;1.90;;;;;;;;;;5033518;28;20037;-79
2023/03/13 04:33:57;;;;;;;3.17;2.08;;;;;;;;;;5036688;28;20087;-79
2023/03/13 04:37:00;;;;;;;4.93;2.35;;;;;;;;;;5026254;28;20049;-79
2023/03/13 04:39:39;;;;;;;2.80;2.00;;;;;;;;;;5038486;28;20530;-80
2023/03/13 04:42:18;;;;;;;3.85;2.28;;;;;;;;;;5041549;28;20029;-79
2023/03/13 04:44:56;;;;;;;3.10;2.05;;;;;;;;;;5049128;28;20469;-81
2023/03/13 04:47:53;;;;;;;4.22;2.35;;;;;;;;;;5023655;28;20048;-81
2023/03/13 04:50:37;;;;;;;4.47;2.60;;;;;;;;;;5046762;28;20415;-80
2023/03/13 04:53:24;;;;;;;3.55;2.58;;;;;;;;;;5055118;28;20064;-80
2023/03/13 04:56:14;;;;;;;4.35;2.80;;;;;;;;;;5034374;28;20471;-79
2023/03/13 04:58:58;;;;;;;3.88;2.47;;;;;;;;;;5045235;28;20171;-79
2023/03/13 05:01:53;;;;;;;6.53;2.38;;;;;;;;;;5040435;28;20495;-80
2023/03/13 05:04:41;;;;;;;4.70;2.22;;;;;;;;;;5055027;28;20384;-79
2023/03/13 05:07:15;;;;;;;6.35;2.53;;;;;;;;;;5054298;28;20561;-80
2023/03/13 05:10:01;;;;;;;6.05;2.78;;;;;;;;;;5054075;28;20496;-79
2023/03/13 05:13:02;;;;;;;4.88;2.63;;;;;;;;;;5012161;28;20556;-80
2023/03/13 05:15:46;;;;;;;5.50;2.63;;;;;;;;;;5022486;28;20514;-80
2023/03/13 05:18:30;;;;;;;7.95;2.72;;;;;;;;;;5054258;28;20415;-80
2023/03/13 05:21:19;;;;;;;8.45;3.00;;;;;;;;;;5052139;28;20037;-80
2023/03/13 05:24:14;;;;;;;4.10;2.28;;;;;;;;;;5032172;28;20025;-80
2023/03/13 05:26:43;;;;;;;3.10;2.20;;;;;;;;;;5052252;28;20120;-80
2023/03/13 05:29:38;;;;;;;4.60;2.55;;;;;;;;;;4999452;28;20038;-80
2023/03/13 05:32:17;;;;;;;5.30;2.80;;;;;;;;;;5052345;28;20460;-80
2023/03/13 05:35:01;;;;;;;4.38;2.45;;;;;;;;;;5039099;28;20048;-79
2023/03/13 05:37:58;;;;;;;;;;;;;;;;;;4998230;28;20516;-79
2023/03/13 05:40:35;;;;;;;5.35;2.10;;;;;;;;;;5051433;28;19917;-79
2023/03/13 05:43:15;;;;;;;3.83;2.72;;;;;;;;;;5053189;28;20115;-79
2023/03/13 05:46:00;;;;;;;4.40;2.70;;;;;;;;;;5054164;28;20598;-79
2023/03/13 05:49:04;;;;;;;4.60;2.53;;;;;;;;;;4998771;28;20049;-81
2023/03/13 05:52:02;;;;;;;6.22;3.17;;;;;;;;;;4948532;28;20109;-80
2023/03/13 05:54:43;;;;;;;4.78;2.75;;;;;;;;;;5031669;28;20061;-80
2023/03/13 05:57:14;;;;;;;4.65;2.58;;;;;;;;;;5052963;28;20420;-81
2023/03/13 06:00:02;;;;;;;6.43;2.83;;;;;;;;;;5053140;28;20550;-79
2023/03/13 06:02:47;;;;;;;4.65;2.65;;;;;;;;;;5017917;28;20034;-81
2023/03/13 06:05:18;;;;;;;4.55;2.63;;;;;;;;;;5030401;28;20071;-80
2023/03/13 06:07:44;;;;;;;3.72;2.38;;;;;;;;;;5035094;28;20039;-79
2023/03/13 06:10:10;;;;;;;4.60;2.50;;;;;;;;;;5034920;28;20025;-80
2023/03/13 06:12:36;;;;;;;3.85;2.42;;;;;;;;;;5002254;28;20644;-80
2023/03/13 06:15:03;;;;;;;4.50;2.75;;;;;;;;;;5034534;28;20507;-80
2023/03/13 06:17:48;;;;;;;5.07;2.65;;;;;;;;;;5034942;28;20412;-80
2023/03/13 06:20:14;;;;;;;4.05;2.30;;;;;;;;;;5034699;28;20029;-79
2023/03/13 06:22:40;;;;;;;5.90;2.65;;;;;;;;;;5052698;28;20044;-81
2023/03/13 06:25:05;;;;;;;4.43;2.40;;;;;;;;;;5031858;28;20029;-82
2023/03/13 06:27:31;;;;;;;4.35;2.38;;;;;;;;;;5006425;28;20080;-80
2023/03/13 06:29:56;;;;;;;4.68;3.30;;;;;;;;;;5032198;28;20029;-80
2023/03/13 06:32:22;;;;;;;3.78;2.38;;;;;;;;;;5052392;28;20037;-80
2023/03/13 06:34:47;;;;;;;5.10;2.40;;;;;;;;;;5034551;28;20120;-79
2023/03/13 06:37:13;;;;;;;5.03;2.42;;;;;;;;;;5052415;28;20044;-79
2023/03/13 06:39:38;;;;;;;4.00;2.35;;;;;;;;;;5034478;28;20037;-79
2023/03/13 06:42:04;;;;;;;4.82;2.80;;;;;;;;;;5034760;28;20029;-79
2023/03/13 06:44:29;;;;;;;3.83;2.65;;;;;;;;;;5052438;28;20083;-80
2023/03/13 06:46:54;;;;;;;5.50;2.50;;;;;;;;;;5052674;28;20132;-80
2023/03/13 06:49:20;;;;;;;5.55;2.50;;;;;;;;;;5052328;28;20112;-81
2023/03/13 06:51:45;;;;;;;5.70;2.35;;;;;;;;;;5052422;28;20029;-80
2023/03/13 06:54:11;;;;;;;4.03;2.33;;;;;;;;;;5055990;28;20036;-80
2023/03/13 06:56:36;;;;;;;3.20;2.15;;;;;;;;;;5070638;28;20040;-79
2023/03/13 06:59:02;;;;;;;3.42;2.03;;;;;;;;;;5069936;28;20503;-80
2023/03/13 07:01:27;;;;;;;4.07;2.22;;;;;;;;;;5053088;28;20088;-80
2023/03/13 07:03:53;;;;;;;3.78;2.65;;;;;;;;;;5051991;28;20029;-80
2023/03/13 07:06:18;;;;;;;5.28;2.35;;;;;;;;;;5052566;28;20020;-81
2023/03/13 07:08:44;;;;;;;3.55;2.45;;;;;;;;;;5070219;28;20029;-80
2023/03/13 07:11:10;;;;;;;5.00;2.22;;;;;;;;;;5069973;28;20185;-80
2023/03/13 07:13:36;;;;;;;3.80;1.90;;;;;;;;;;5050325;28;20040;-80
2023/03/13 07:16:03;;;;;;;3.88;2.58;;;;;;;;;;5070327;28;20040;-80
2023/03/13 07:18:53;;;;;;;5.55;2.40;;;;;;;;;;5069613;28;20149;-80
2023/03/13 07:21:19;;;;;;;3.47;2.08;;;;;;;;;;5070400;28;20523;-79
2023/03/13 07:23:44;;;;;;;3.42;1.77;;;;;;;;;;5070045;28;20028;-80
2023/03/13 07:26:10;;;;;;;3.60;1.92;;;;;;;;;;5070594;28;20032;-81
2023/03/13 07:28:36;;;;;;;2.95;1.60;;;;;;;;;;5070112;28;20050;-80
2023/03/13 07:31:02;;;;;;;4.90;2.05;;;;;;;;;;5053204;28;20119;-81
2023/03/13 07:33:28;;;;;;;2.97;1.88;;;;;;;;;;5051500;28;20036;-80
2023/03/13 07:35:53;;;;;;;4.38;1.90;;;;;;;;;;5052417;28;20048;-81
2023/03/13 07:38:18;;;;;;;3.30;1.80;;;;;;;;;;5050799;28;20025;-81
2023/03/13 07:40:51;;;;;;;2.60;1.80;;;;;;;;;;5052534;28;20036;-79
2023/03/13 07:43:16;;;;;;;2.92;1.83;;;;;;;;;;5070245;28;20052;-79
2023/03/13 07:45:54;;;;;;;3.40;1.98;;;;;;;;;;5069848;28;20590;-79
2023/03/13 07:48:19;;;;;;;2.83;1.83;;;;;;;;;;5047206;28;20072;-80
2023/03/13 07:50:45;;;;;;;3.15;1.65;;;;;;;;;;5039876;28;20060;-80
2023/03/13 07:53:10;;;;;;;3.92;2.10;;;;;;;;;;5070440;28;20372;-80
2023/03/13 07:55:36;;;;;;;5.13;2.10;;;;;;;;;;4994256;28;1291135;-80
2023/03/13 07:58:01;;;;;;;3.47;2.00;;;;;;;;;;5053024;28;20044;-79
2023/03/13 08:00:27;;;;;;;3.50;1.90;;;;;;;;;;5070395;28;20032;-79
2023/03/13 08:03:17;;;;;;;3.63;1.98;;;;;;;;;;5071176;28;20039;-78
2023/03/13 08:05:43;;;;;;;5.10;2.10;;;;;;;;;;5035430;28;20033;-79
2023/03/13 08:08:08;;;;;;;3.72;2.30;;;;;;;;;;5052100;28;20475;-79
2023/03/13 08:10:34;;;;;;;3.90;2.00;;;;;;;;;;5051791;28;20036;-79
2023/03/13 08:12:59;;;;;;;4.60;2.28;;;;;;;;;;5060065;28;20039;-79
2023/03/13 08:15:25;;;;;;;4.63;2.13;;;;;;;;;;5064044;28;20037;-79
2023/03/13 08:17:54;;;;;;;4.80;1.95;;;;;;;;;;5044458;28;20036;-79
2023/03/13 08:20:19;;;;;;;3.15;1.73;;;;;;;;;;5069959;28;20040;-80
2023/03/13 08:22:49;;;;;;;2.83;1.80;;;;;;;;;;5052430;28;20032;-78
2023/03/13 08:25:15;;;;;;;4.88;2.28;;;;;;;;;;5047387;28;20377;-80
2023/03/13 08:27:40;;;;;;;6.38;1.88;;;;;;;;;;5045277;28;20058;-80
2023/03/13 08:30:06;;;;;;;2.85;1.70;;;;;;;;;;5064647;28;20033;-80
2023/03/13 08:32:32;;;;;;;4.03;2.00;;;;;;;;;;5044999;28;20029;-78
2023/03/13 08:34:57;;;;;;;2.58;1.70;;;;;;;;;;5051960;28;20082;-79
2023/03/13 08:37:23;;;;;;;3.30;1.75;;;;;;;;;;5070650;28;20032;-81
2023/03/13 08:39:48;;;;;;;3.42;1.60;;;;;;;;;;5069920;28;20375;-80
2023/03/13 08:42:14;;;;;;;3.28;1.70;;;;;;;;;;5052539;28;20028;-80
2023/03/13 08:44:39;;;;;;;3.20;1.90;;;;;;;;;;5056656;28;20414;-79
2023/03/13 08:47:05;;;;;;;4.10;1.75;;;;;;;;;;5035474;28;20086;-79
2023/03/13 08:49:31;;;;;;;2.45;1.30;;;;;;;;;;5048352;28;20033;-79
2023/03/13 08:51:56;;;;;;;2.92;1.50;;;;;;;;;;5043305;28;20025;-79
2023/03/13 08:54:21;;;;;;;2.83;1.70;;;;;;;;;;5046876;28;20049;-81
2023/03/13 08:56:47;;;;;;;2.67;1.50;;;;;;;;;;5032242;28;20403;-78
2023/03/13 08:59:14;;;;;;;2.85;1.50;;;;;;;;;;5050625;28;20032;-80
2023/03/13 09:01:39;;;;;;;3.95;1.63;;;;;;;;;;5049313;28;20075;-80
2023/03/13 09:04:05;;;;;;;3.72;1.70;;;;;;;;;;5047886;28;20048;-80
2023/03/13 09:06:34;;;;;;;3.55;1.60;;;;;;;;;;5032953;28;20427;-79
2023/03/13 09:08:59;;;;;;;3.78;1.83;;;;;;;;;;5032739;28;20031;-80
2023/03/13 09:11:25;;;;;;;3.35;1.75;;;;;;;;;;5032854;28;20092;-80
2023/03/13 09:13:51;;;;;;;4.60;1.95;;;;;;;;;;5033265;28;20029;-79
2023/03/13 09:16:17;;;;;;;3.33;1.92;;;;;;;;;;5033134;28;20037;-80
2023/03/13 09:18:42;;;;;;;;;;;;;;;;;;5033657;28;20102;-80
2023/03/13 09:21:08;;;;;;;3.15;1.60;;;;;;;;;;5050338;28;19912;-80
2023/03/13 09:23:34;;;;;;;2.40;1.40;;;;;;;;;;5032991;28;20396;-80
2023/03/13 09:25:59;;;;;;;3.65;1.48;;;;;;;;;;5032891;28;20035;-82
2023/03/13 09:28:25;;;;;;;2.65;1.48;;;;;;;;;;5049784;28;20347;-81
2023/03/13 09:30:50;;;;;;;3.63;1.50;;;;;;;;;;5033538;28;20037;-82
2023/03/13 09:33:16;;;;;;;4.97;1.95;;;;;;;;;;5033956;28;20063;-80
2023/03/13 09:35:42;;;;;;;3.13;1.70;;;;;;;;;;5034725;28;20487;-80
2023/03/13 09:38:08;;;;;;;3.40;1.70;;;;;;;;;;5038586;28;20032;-79
2023/03/13 09:40:37;;;;;;;3.47;1.45;;;;;;;;;;5054577;28;20029;-79
2023/03/13 09:43:03;;;;;;;2.95;1.55;;;;;;;;;;5038940;28;20417;-79
2023/03/13 09:45:31;;;;;;;2.08;1.20;;;;;;;;;;5038119;28;20024;-80
2023/03/13 09:48:17;;;;;;;1.98;1.30;;;;;;;;;;5037765;28;20542;-79
2023/03/13 09:50:47;;;;;;;1.60;1.17;;;;;;;;;;5036495;28;20462;-81
2023/03/13 09:53:13;;;;;;;3.13;1.50;;;;;;;;;;5048008;28;20535;-81
2023/03/13 09:55:39;;;;;;;2.42;1.40;;;;;;;;;;5035216;28;20060;-80
2023/03/13 09:58:10;;;;;;;2.67;1.30;;;;;;;;;;5019366;28;20033;-80
2023/03/13 10:00:37;;;;;;;3.35;1.30;;;;;;;;;;5035566;28;20037;-80
2023/03/13 10:03:21;;;;;;;2.83;1.35;;;;;;;;;;5021801;28;20120;-80
2023/03/13 10:05:48;;;;;;;3.10;1.40;;;;;;;;;;5051737;28;20102;-81
2023/03/13 10:08:18;;;;;;;3.58;1.30;;;;;;;;;;5035580;28;20021;-80
2023/03/13 10:10:44;;;;;;;2.40;1.60;;;;;;;;;;5015457;28;20516;-80
2023/03/13 10:13:21;;;;;;;2.70;1.38;;;;;;;;;;5028485;28;20024;-80
2023/03/13 10:15:52;;;;;;;3.45;1.77;;;;;;;;;;5035727;28;20040;-79
2023/03/13 10:18:20;;;;;;;2.53;1.33;;;;;;;;;;5035276;28;20504;-80
2023/03/13 10:20:47;;;;;;;2.78;1.55;;;;;;;;;;5019688;28;20807;-80
2023/03/13 10:23:18;;;;;;;2.42;1.40;;;;;;;;;;5019801;28;20041;-81
2023/03/13 10:25:43;;;;;;;2.63;1.55;;;;;;;;;;5019025;28;20048;-80
2023/03/13 10:28:13;;;;;;;3.42;1.40;;;;;;;;;;5052211;28;20086;-81
2023/03/13 10:30:42;;;;;;;3.17;1.20;;;;;;;;;;5035499;28;20036;-80
2023/03/13 10:33:07;;;;;;;5.53;1.52;;;;;;;;;;5035184;28;20028;-80
2023/03/13 10:35:37;;;;;;;2.35;1.50;;;;;;;;;;5053338;28;20033;-80
2023/03/13 10:38:04;;;;;;;2.47;1.50;;;;;;;;;;5034512;28;20041;-79
2023/03/13 10:40:29;;;;;;;2.42;1.20;;;;;;;;;;5052790;28;20034;-79
2023/03/13 10:43:05;;;;;;;2.33;1.42;;;;;;;;;;5034557;28;20024;-79
2023/03/13 10:45:32;;;;;;;2.55;1.40;;;;;;;;;;5017616;28;20415;-80
2023/03/13 10:48:01;;;;;;;3.35;1.40;;;;;;;;;;5016115;28;20480;-80
2023/03/13 10:50:30;;;;;;;2.63;1.25;;;;;;;;;;5033944;28;20942;-80
2023/03/13 10:52:56;;;;;;;3.10;1.30;;;;;;;;;;5033949;28;20048;-80
2023/03/13 10:55:22;;;;;;;2.35;1.63;;;;;;;;;;5034559;28;20567;-80
2023/03/13 10:57:57;;;;;;;2.28;1.35;;;;;;;;;;5051539;28;20492;-80
2023/03/13 11:00:32;;;;;;;3.53;1.38;;;;;;;;;;5033996;28;20450;-79
2023/03/13 11:02:57;;;;;;;5.15;1.40;;;;;;;;;;5051909;28;20090;-80
2023/03/13 11:05:30;;;;;;;2.88;1.50;;;;;;;;;;5051440;28;20028;-79
2023/03/13 11:07:55;;;;;;;2.70;1.35;;;;;;;;;;5034685;28;20384;-80
2023/03/13 11:10:24;;;;;;;3.70;1.58;;;;;;;;;;5033937;28;20039;-81
2023/03/13 11:12:51;;;;;;;2.97;1.70;;;;;;;;;;5014917;28;20116;-80
2023/03/13 11:15:16;;;;;;;;;;;;;;;;;;5031875;28;20020;-78
2023/03/13 11:17:41;;;;;;;3.10;1.80;;;;;;;;;;5034412;28;19941;-80
2023/03/13 11:20:11;;;;;;;3.13;1.55;;;;;;;;;;5033557;28;20032;-80
2023/03/13 11:22:58;;;;;;;2.90;1.45;;;;;;;;;;5033691;28;20544;-80
2023/03/13 11:25:42;;;;;;;4.95;1.80;;;;;;;;;;5021522;28;20500;-80
2023/03/13 11:28:26;;;;;;;2.88;1.50;;;;;;;;;;5051847;28;20044;-79
2023/03/13 11:30:58;;;;;;;3.78;1.25;;;;;;;;;;5050038;28;20032;-79
2023/03/13 11:33:30;;;;;;;3.70;1.73;;;;;;;;;;5049413;28;20541;-80
2023/03/13 11:36:04;;;;;;;4.28;1.48;;;;;;;;;;5051628;28;20594;-79
2023/03/13 11:38:34;;;;;;;4.30;1.90;;;;;;;;;;5017074;28;20033;-79
2023/03/13 11:41:24;;;;;;;2.65;1.40;;;;;;;;;;5049856;28;20389;-80
2023/03/13 11:43:56;;;;;;;3.72;1.40;;;;;;;;;;5041367;28;20033;-79
2023/03/13 11:46:24;;;;;;;4.55;1.58;;;;;;;;;;5050835;28;20051;-80
2023/03/13 11:49:09;;;;;;;5.80;1.92;;;;;;;;;;5040592;28;20096;-80
2023/03/13 11:51:53;;;;;;;1.83;1.20;;;;;;;;;;5030101;28;20037;-79
2023/03/13 11:54:24;;;;;;;2.10;1.20;;;;;;;;;;5053504;28;20056;-80
2023/03/13 11:57:04;;;;;;;2.72;1.40;;;;;;;;;;5053152;28;20032;-79
2023/03/13 11:59:38;;;;;;;2.42;1.40;;;;;;;;;;5070427;28;20041;-80
2023/03/13 12:02:19;;;;;;;2.58;1.20;;;;;;;;;;5070401;28;20074;-79
2023/03/13 12:04:46;;;;;;;2.50;1.10;;;;;;;;;;5052853;28;20464;-79
2023/03/13 12:07:11;;;;;;;1.80;1.10;;;;;;;;;;5035029;28;20087;-79
2023/03/13 12:10:03;;;;;;;3.03;1.10;;;;;;;;;;5070703;28;20111;-80
2023/03/13 12:12:43;;;;;;;2.60;1.10;;;;;;;;;;5032374;28;20135;-79
2023/03/13 12:15:21;;;;;;;3.78;1.48;;;;;;;;;;5051934;28;20111;-80
2023/03/13 12:17:55;;;;;;;2.78;1.13;;;;;;;;;;5052386;28;20036;-80
2023/03/13 12:20:37;;;;;;;2.90;1.70;;;;;;;;;;5069119;28;20032;-80
2023/03/13 12:23:19;;;;;;;1.73;1.00;;;;;;;;;;5051322;28;20617;-79
2023/03/13 12:25:55;;;;;;;1.90;1.13;;;;;;;;;;5070590;28;20086;-79
2023/03/13 12:28:27;;;;;;;3.13;1.40;;;;;;;;;;5056951;28;20029;-80
2023/03/13 12:30:58;;;;;;;3.28;1.30;;;;;;;;;;5070495;28;20279;-78
2023/03/13 12:33:25;;;;;;;3.92;1.30;;;;;;;;;;5046327;28;20037;-80
2023/03/13 12:36:03;;;;;;;3.35;1.38;;;;;;;;;;5045722;28;20028;-80
2023/03/13 12:38:39;;;;;;;2.40;1.10;;;;;;;;;;5052840;28;20032;-80
2023/03/13 12:41:05;;;;;;;;;;;;;;;;;;5051867;28;20159;-79
2023/03/13 12:43:31;;;;;;;1.80;1.05;;;;;;;;;;5070092;28;20054;-78
2023/03/13 12:45:57;;;;;;;2.47;1.10;;;;;;;;;;5069178;28;20028;-79
2023/03/13 12:48:25;;;;;;;1.98;1.00;;;;;;;;;;5069871;28;20055;-80
2023/03/13 12:51:03;;;;;;;5.70;1.38;;;;;;;;;;5057191;28;20043;-80
2023/03/13 12:53:41;;;;;;;1.92;0.90;;;;;;;;;;5070003;28;20411;-79
2023/03/13 12:56:12;;;;;;;1.67;0.90;;;;;;;;;;5068975;28;20522;-80
2023/03/13 12:58:48;;;;;;;1.73;0.90;;;;;;;;;;5052059;28;20036;-80
2023/03/13 13:01:23;;;;;;;1.65;1.00;;;;;;;;;;5020270;28;20040;-80
2023/03/13 13:03:49;;;;;;;2.92;1.20;;;;;;;;;;5050149;28;20029;-80
2023/03/13 13:06:14;;;;;;;1.65;1.05;;;;;;;;;;5050614;28;20009;-81
2023/03/13 13:08:45;;;;;;;2.90;1.20;;;;;;;;;;5034649;28;20440;-79
2023/03/13 13:11:29;;;;;;;2.15;1.15;;;;;;;;;;5072699;28;20395;-79
2023/03/13 13:13:55;;;;;;;7.85;3.65;;;;;;;;;;5055596;28;20036;-79
2023/03/13 13:16:21;;;;;;;2.85;1.30;;;;;;;;;;5073952;28;20394;-80
2023/03/13 13:18:47;;;;;;;1.90;1.00;;;;;;;;;;5055611;28;20059;-80
2023/03/13 13:21:16;;;;;;;2.92;1.13;;;;;;;;;;5039957;28;20467;-80
2023/03/13 13:23:45;;;;;;;2.78;1.10;;;;;;;;;;5073602;28;20082;-80
2023/03/13 13:26:23;;;;;;;2.83;1.40;;;;;;;;;;5057112;28;20435;-80
2023/03/13 13:28:49;;;;;;;2.15;1.20;;;;;;;;;;5050885;28;20074;-79
2023/03/13 13:31:33;;;;;;;1.95;1.10;;;;;;;;;;5041610;28;20033;-79
2023/03/13 13:33:58;;;;;;;4.15;1.50;;;;;;;;;;5065376;28;20062;-80
2023/03/13 13:36:27;;;;;;;2.28;1.33;;;;;;;;;;5073795;28;20038;-79
2023/03/13 13:38:53;;;;;;;1.67;0.98;;;;;;;;;;5056719;28;20037;-79
2023/03/13 13:41:18;;;;;;;2.00;1.38;;;;;;;;;;5051546;28;20031;-80
2023/03/13 13:43:44;;;;;;;2.53;1.30;;;;;;;;;;5036472;28;20041;-79
2023/03/13 13:46:23;;;;;;;1.83;1.08;;;;;;;;;;5053392;28;20028;-78
2023/03/13 13:49:15;;;;;;;4.05;1.42;;;;;;;;;;5056041;28;20033;-80
2023/03/13 13:51:40;;;;;;;2.60;1.38;;;;;;;;;;5047687;28;20503;-80
2023/03/13 13:54:18;;;;;;;2.63;1.25;;;;;;;;;;5055172;28;20139;-80
2023/03/13 13:56:48;;;;;;;2.97;1.35;;;;;;;;;;5073810;28;20082;-80
2023/03/13 13:59:19;;;;;;;2.70;1.40;;;;;;;;;;5030701;28;20052;-79
2023/03/13 14:01:45;;;;;;;3.30;1.30;;;;;;;;;;5027736;28;20083;-80
2023/03/13 14:04:12;;;;;;;3.75;1.20;;;;;;;;;;5035491;28;20021;-80
2023/03/13 14:06:37;;;;;;;2.03;1.20;;;;;;;;;;5053432;28;20120;-80
2023/03/13 14:09:23;;;;;;;2.47;1.27;;;;;;;;;;5058485;28;20111;-80
2023/03/13 14:11:49;;;;;;;3.53;1.40;;;;;;;;;;5025420;28;20037;-80
2023/03/13 14:14:14;;;;;;;2.42;1.40;;;;;;;;;;5042099;28;20024;-80
2023/03/13 14:16:42;;;;;;;3.55;1.38;;;;;;;;;;5037209;28;20378;-79
2023/03/13 14:19:19;;;;;;;2.25;1.30;;;;;;;;;;5046510;28;20029;-80
2023/03/13 14:21:45;;;;;;;2.63;1.40;;;;;;;;;;5034869;28;20037;-80
2023/03/13 14:24:14;;;;;;;3.67;1.30;;;;;;;;;;5052815;28;20051;-80
2023/03/13 14:26:41;;;;;;;2.65;1.08;;;;;;;;;;5035766;28;20085;-80
2023/03/13 14:29:06;;;;;;;2.20;1.38;;;;;;;;;;5053397;28;20122;-79
2023/03/13 14:31:33;;;;;;;3.58;1.10;;;;;;;;;;5034932;28;20067;-80
2023/03/13 14:34:02;;;;;;;2.55;1.30;;;;;;;;;;5045204;28;20110;-80
2023/03/13 14:36:28;;;;;;;2.20;1.20;;;;;;;;;;5037470;28;20037;-80
2023/03/13 14:38:57;;;;;;;3.10;1.30;;;;;;;;;;5035171;28;20039;-79
2023/03/13 14:41:27;;;;;;;1.65;1.10;;;;;;;;;;5018319;28;20036;-80
2023/03/13 14:43:53;;;;;;;3.63;1.30;;;;;;;;;;5034792;28;20156;-80
2023/03/13 14:46:24;;;;;;;1.63;1.13;;;;;;;;;;5034979;28;20112;-79
2023/03/13 14:48:52;;;;;;;2.65;1.25;;;;;;;;;;5034633;28;20036;-80
2023/03/13 14:51:19;;;;;;;3.38;1.50;;;;;;;;;;5041349;28;20028;-79
2023/03/13 14:53:55;;;;;;;2.60;1.10;;;;;;;;;;5054353;28;20610;-80
2023/03/13 14:56:28;;;;;;;2.23;1.30;;;;;;;;;;5037604;28;20037;-79
2023/03/13 14:58:54;;;;;;;4.05;1.42;;;;;;;;;;5053269;28;20546;-80
2023/03/13 15:01:21;;;;;;;2.42;1.30;;;;;;;;;;5036137;28;20103;-80
2023/03/13 15:03:46;;;;;;;3.20;1.60;;;;;;;;;;5053667;28;20043;-79